Terminal Aerodrome Forecast
Issued by NWS

Home | Current Version | Previous Version | Text Only | Print | Product List | Glossary Off
Versions: 1 2 3 4 5 6 7 8 9 10 11 12 13 14 15 16

000
FTUS43 KBIS 211620 AAA
TAFDIK
TAF AMD
KDIK 211620Z 2116/2212 16013G20KT P6SM SKC
     FM220100 14008KT P6SM SKC
     FM220500 16007KT P6SM SCT250
     FM220700 17007KT P6SM SCT250=

USA.gov is the U.S. government's official web portal to all federal, state and local government web resources and services.